Time;durP1;ratioP1;P1;durP2;ratioP2;P2;SDS_P1;SDS_P2;PMS_P1;PMS_P2;Temp;Humidity;BMP_temperature;BMP_pressure;BME280_temperature;BME280_humidity;BME280_pressure;Samples;Min_cycle;Max_cycle;Signal;HPM_P1;HPM_P2
2022/06/01 00:02:32;;;;;;;1.90;1.80;;;26.00;69.80;;;;;;4908351;29;20551;-61
2022/06/01 00:05:03;;;;;;;2.30;2.10;;;26.20;67.40;;;;;;4907949;29;20463;-61
2022/06/01 00:07:48;;;;;;;1.90;1.80;;;26.20;66.70;;;;;;4908155;29;20483;-61
2022/06/01 00:10:26;;;;;;;2.00;1.90;;;26.30;69.80;;;;;;4907354;29;20451;-61
2022/06/01 00:12:59;;;;;;;2.20;2.00;;;26.40;70.00;;;;;;4908185;29;20453;-61
2022/06/01 00:15:33;;;;;;;2.10;1.80;;;26.50;66.20;;;;;;4907762;29;20460;-61
2022/06/01 00:18:04;;;;;;;2.17;1.93;;;26.50;69.30;;;;;;4907877;29;20451;-61
2022/06/01 00:20:35;;;;;;;1.53;1.43;;;26.50;68.70;;;;;;4907188;29;20507;-60
2022/06/01 00:23:08;;;;;;;2.10;2.00;;;26.60;68.90;;;;;;4908077;29;20855;-61
2022/06/01 00:25:39;;;;;;;2.17;1.97;;;26.50;68.30;;;;;;4919043;29;20448;-61
2022/06/01 00:28:14;;;;;;;2.60;2.20;;;26.50;68.90;;;;;;4926851;29;20490;-61
2022/06/01 00:30:45;;;;;;;2.10;1.87;;;26.40;68.10;;;;;;4926601;29;20451;-60
2022/06/01 00:33:16;;;;;;;1.70;1.60;;;26.30;67.10;;;;;;4926795;29;20488;-61
2022/06/01 00:35:50;;;;;;;1.90;1.80;;;26.20;65.30;;;;;;4925798;29;20476;-61
2022/06/01 00:38:21;;;;;;;2.10;2.00;;;26.30;68.10;;;;;;4926660;29;20454;-61
2022/06/01 00:40:54;;;;;;;2.50;2.20;;;26.20;71.40;;;;;;4925694;29;20491;-61
2022/06/01 00:43:29;;;;;;;2.03;1.93;;;26.10;66.90;;;;;;4926464;29;20590;-60
2022/06/01 00:45:59;;;;;;;1.90;1.80;;;26.00;68.40;;;;;;4926193;29;20485;-62
2022/06/01 00:48:32;;;;;;;2.13;2.03;;;26.00;67.90;;;;;;4925557;29;20534;-60
2022/06/01 00:51:03;;;;;;;2.63;2.30;;;25.80;69.40;;;;;;4926241;29;20463;-60
2022/06/01 00:53:41;;;;;;;2.00;1.90;;;25.80;69.40;;;;;;4921077;29;20457;-61
2022/06/01 00:56:19;;;;;;;3.13;1.97;;;25.90;69.30;;;;;;4906805;29;20452;-61
2022/06/01 00:58:56;;;;;;;2.03;1.90;;;26.00;68.60;;;;;;4907092;29;20556;-61
2022/06/01 01:01:29;;;;;;;2.27;2.07;;;26.00;67.90;;;;;;4907162;29;20495;-61
2022/06/01 01:04:02;;;;;;;2.03;1.93;;;26.00;70.60;;;;;;4916408;29;20463;-62
2022/06/01 01:06:37;;;;;;;2.70;2.50;;;26.00;69.60;;;;;;4926163;29;20455;-61
2022/06/01 01:09:11;;;;;;;1.90;1.80;;;26.00;69.90;;;;;;4924923;29;21090;-60
2022/06/01 01:11:48;;;;;;;3.40;2.47;;;25.80;70.00;;;;;;4926082;29;20431;-61
2022/06/01 01:14:28;;;;;;;2.23;2.13;;;25.70;70.10;;;;;;4925958;29;20472;-60
2022/06/01 01:17:00;;;;;;;2.17;1.80;;;25.70;70.40;;;;;;4926257;29;20447;-61
2022/06/01 01:19:35;;;;;;;2.10;2.00;;;25.50;70.40;;;;;;4925333;29;20464;-61
2022/06/01 01:22:24;;;;;;;2.40;2.30;;;25.40;71.10;;;;;;4925813;29;20498;-61
2022/06/01 01:25:22;;;;;;;2.47;2.27;;;25.10;71.80;;;;;;4924923;29;20533;-60
2022/06/01 01:27:54;;;;;;;2.00;1.90;;;24.80;71.80;;;;;;4924626;29;20459;-61
2022/06/01 01:30:41;;;;;;;1.77;1.67;;;24.70;73.90;;;;;;4925739;29;20451;-61
2022/06/01 01:33:15;;;;;;;3.00;2.67;;;24.60;74.30;;;;;;4925683;29;20450;-61
2022/06/01 01:35:50;;;;;;;4.33;4.03;;;24.50;75.70;;;;;;4925674;29;20483;-61
2022/06/01 01:38:35;;;;;;;86.90;79.17;;;24.40;75.50;;;;;;4925862;29;20468;-61
2022/06/01 01:41:18;;;;;;;68.03;61.93;;;24.40;75.40;;;;;;4924684;29;20504;-61
2022/06/01 01:43:57;;;;;;;11.40;10.40;;;24.40;75.90;;;;;;4925699;29;20454;-61
2022/06/01 01:46:30;;;;;;;20.60;18.70;;;24.20;75.90;;;;;;4925848;29;20474;-61
2022/06/01 01:49:02;;;;;;;13.70;12.60;;;24.10;77.40;;;;;;4925113;29;20450;-61
2022/06/01 01:51:42;;;;;;;50.30;46.20;;;24.00;77.10;;;;;;4925592;29;20470;-61
2022/06/01 01:54:27;;;;;;;127.37;116.67;;;24.00;76.50;;;;;;4924454;29;20469;-61
2022/06/01 01:57:16;;;;;;;73.53;66.70;;;24.00;74.70;;;;;;4925849;29;20511;-60
2022/06/01 02:00:03;;;;;;;84.30;71.40;;;24.00;76.80;;;;;;4925445;29;20533;-60
2022/06/01 02:02:44;;;;;;;6.07;5.50;;;24.00;76.60;;;;;;4925899;29;20856;-60
2022/06/01 02:08:21;;;;;;;65.53;58.93;;;23.90;76.80;;;;;;4925235;29;20462;-61
2022/06/01 02:13:52;;;;;;;3.67;3.47;;;23.80;77.80;;;;;;4925046;29;20454;-60
2022/06/01 02:16:31;;;;;;;2.63;2.43;;;23.80;78.00;;;;;;4928381;29;20553;-60
2022/06/01 02:19:08;;;;;;;2.73;2.50;;;23.60;77.10;;;;;;4928242;29;20491;-60
2022/06/01 02:21:41;;;;;;;2.30;2.20;;;23.60;76.30;;;;;;4928924;29;20545;-61
2022/06/01 02:24:14;;;;;;;3.10;2.90;;;23.60;77.10;;;;;;4927766;29;20458;-60
2022/06/01 02:26:49;;;;;;;4.97;4.50;;;23.60;77.10;;;;;;4928946;29;20498;-61
2022/06/01 02:29:31;;;;;;;7.60;6.90;;;23.50;77.10;;;;;;4928359;29;20465;-61
2022/06/01 02:32:03;;;;;;;6.00;5.50;;;23.40;77.20;;;;;;4928798;29;20546;-61
2022/06/01 02:34:34;;;;;;;5.40;4.90;;;23.30;76.60;;;;;;4928268;29;20458;-61
2022/06/01 02:37:06;;;;;;;9.20;7.73;;;23.20;78.20;;;;;;4928630;29;20455;-61
2022/06/01 02:39:52;;;;;;;5.80;5.20;;;23.20;77.40;;;;;;4927463;29;20554;-61
2022/06/01 02:42:31;;;;;;;4.03;3.63;;;23.10;77.90;;;;;;4928566;29;20808;-61
2022/06/01 02:45:06;;;;;;;3.83;3.53;;;23.00;78.20;;;;;;4927926;29;20478;-61
2022/06/01 02:47:47;;;;;;;2.87;2.67;;;22.90;79.20;;;;;;4928190;29;20450;-61
2022/06/01 02:50:20;;;;;;;2.40;2.20;;;22.90;79.10;;;;;;4928144;29;20469;-61
2022/06/01 02:52:52;;;;;;;2.30;2.20;;;22.80;78.90;;;;;;4928356;29;20466;-61
2022/06/01 02:55:35;;;;;;;2.10;2.00;;;22.70;80.10;;;;;;4927008;29;20534;-62
2022/06/01 02:58:07;;;;;;;2.00;1.90;;;22.60;80.50;;;;;;4928327;29;20446;-61
2022/06/01 03:00:40;;;;;;;2.50;2.30;;;22.60;80.80;;;;;;4927954;29;20450;-61
2022/06/01 03:03:12;;;;;;;2.20;2.00;;;22.60;81.20;;;;;;4928177;29;20508;-61
2022/06/01 03:05:43;;;;;;;2.33;2.17;;;22.50;81.50;;;;;;4927950;29;20465;-61
2022/06/01 03:08:14;;;;;;;2.30;2.10;;;22.40;83.10;;;;;;4928021;29;20455;-61
2022/06/01 03:10:45;;;;;;;2.40;2.03;;;22.20;84.20;;;;;;4926839;29;20465;-61
2022/06/01 03:13:22;;;;;;;2.83;2.63;;;22.10;84.10;;;;;;4927790;29;20829;-61
2022/06/01 03:15:58;;;;;;;3.10;2.80;;;22.10;84.80;;;;;;4927844;29;20447;-61
2022/06/01 03:18:31;;;;;;;3.17;2.77;;;22.00;84.50;;;;;;4927623;29;20482;-61
2022/06/01 03:21:04;;;;;;;2.80;2.60;;;22.00;86.00;;;;;;4927306;29;20433;-61
2022/06/01 03:23:35;;;;;;;3.33;2.97;;;21.90;86.70;;;;;;4927154;29;20556;-61
2022/06/01 03:26:05;;;;;;;2.30;2.20;;;22.00;85.70;;;;;;4926356;29;20457;-61
2022/06/01 03:28:39;;;;;;;2.40;2.20;;;21.90;86.20;;;;;;4927009;29;20461;-61
2022/06/01 03:31:12;;;;;;;2.60;2.43;;;21.90;87.50;;;;;;4927286;29;20455;-61
2022/06/01 03:33:44;;;;;;;2.87;2.67;;;21.70;89.10;;;;;;4927196;29;20463;-61
2022/06/01 03:36:17;;;;;;;3.87;3.57;;;21.60;89.10;;;;;;4927206;29;20462;-61
2022/06/01 03:38:48;;;;;;;2.73;2.53;;;21.50;89.60;;;;;;4926877;29;20935;-61
2022/06/01 03:41:22;;;;;;;3.00;2.70;;;21.50;90.30;;;;;;4926587;29;20436;-61
2022/06/01 03:46:44;;;;;;;2.40;2.30;;;21.40;89.40;;;;;;4926983;29;20571;-61
2022/06/01 03:49:17;;;;;;;2.67;2.50;;;21.40;90.20;;;;;;4927137;29;20438;-61
2022/06/01 03:51:48;;;;;;;3.63;2.50;;;21.30;90.70;;;;;;4926517;29;20558;-60
2022/06/01 03:54:19;;;;;;;3.07;2.17;;;21.10;91.40;;;;;;4915368;29;20460;-61
2022/06/01 03:56:51;;;;;;;3.00;2.07;;;21.00;91.90;;;;;;4908207;29;20455;-60
2022/06/01 03:59:22;;;;;;;2.90;2.70;;;20.90;92.20;;;;;;4907928;29;20466;-60
2022/06/01 04:01:55;;;;;;;2.70;2.50;;;20.80;92.80;;;;;;4907808;29;20430;-60
2022/06/01 04:04:26;;;;;;;5.07;2.63;;;20.60;93.20;;;;;;4908291;29;20456;-60
2022/06/01 04:06:57;;;;;;;2.30;2.20;;;20.60;93.80;;;;;;4908035;29;20874;-60
2022/06/01 04:09:29;;;;;;;2.63;2.43;;;20.50;94.30;;;;;;4906763;29;20757;-61
2022/06/01 04:12:00;;;;;;;3.03;2.83;;;20.40;94.60;;;;;;4907752;29;20459;-61
2022/06/01 04:14:35;;;;;;;4.10;3.77;;;20.30;95.20;;;;;;4907392;29;20559;-60
2022/06/01 04:17:10;;;;;;;3.40;3.20;;;20.20;96.00;;;;;;4907860;29;20414;-61
2022/06/01 04:19:41;;;;;;;4.03;3.73;;;20.10;95.50;;;;;;4907619;29;20435;-60
2022/06/01 04:22:16;;;;;;;3.43;3.10;;;20.10;95.80;;;;;;4907610;29;21051;-61
2022/06/01 04:24:47;;;;;;;3.13;2.83;;;20.00;96.20;;;;;;4906623;29;20426;-61
2022/06/01 04:27:18;;;;;;;3.80;2.70;;;19.90;97.40;;;;;;4907561;29;20451;-60
2022/06/01 04:29:49;;;;;;;2.90;2.70;;;19.90;97.60;;;;;;4907304;29;20459;-60
2022/06/01 04:32:26;;;;;;;2.97;2.70;;;19.80;98.00;;;;;;4907232;29;20430;-61
2022/06/01 04:34:56;;;;;;;2.60;2.40;;;19.70;99.10;;;;;;4907264;29;20509;-60
2022/06/01 04:37:27;;;;;;;3.20;2.70;;;19.70;98.80;;;;;;4907394;29;20447;-60
2022/06/01 04:39:58;;;;;;;2.90;2.70;;;19.60;99.60;;;;;;4906386;29;20430;-60
2022/06/01 04:42:29;;;;;;;3.57;2.80;;;19.50;99.60;;;;;;4906972;29;20488;-60
2022/06/01 04:45:00;;;;;;;3.40;2.90;;;19.50;99.90;;;;;;4906997;29;20430;-61
2022/06/01 04:47:32;;;;;;;2.60;2.40;;;19.50;99.90;;;;;;4907087;29;20485;-61
2022/06/01 04:50:03;;;;;;;2.90;2.70;;;19.40;99.90;;;;;;4907399;29;20906;-60
2022/06/01 04:52:37;;;;;;;3.47;3.13;;;19.40;99.90;;;;;;4909113;29;20463;-60
2022/06/01 04:55:09;;;;;;;3.03;2.73;;;19.30;99.90;;;;;;4924834;29;20430;-60
2022/06/01 04:57:39;;;;;;;3.17;2.87;;;19.30;99.90;;;;;;4926028;29;20945;-60
2022/06/01 05:00:13;;;;;;;3.00;2.80;;;19.30;99.90;;;;;;4926030;29;20433;-61
2022/06/01 05:02:51;;;;;;;3.20;3.00;;;19.30;99.90;;;;;;4925657;29;20502;-61
2022/06/01 05:05:22;;;;;;;3.43;3.20;;;19.30;99.90;;;;;;4926012;29;20442;-60
2022/06/01 05:07:53;;;;;;;3.43;3.20;;;19.30;99.90;;;;;;4926110;29;20469;-60
2022/06/01 05:10:28;;;;;;;3.80;3.50;;;19.20;99.90;;;;;;4924960;29;20466;-60
2022/06/01 05:13:02;;;;;;;5.40;3.73;;;19.20;99.90;;;;;;4925792;29;20433;-60
2022/06/01 05:15:36;;;;;;;3.67;3.37;;;19.10;99.90;;;;;;4925621;29;20469;-60
2022/06/01 05:18:10;;;;;;;5.00;3.53;;;19.10;99.90;;;;;;4925660;29;20439;-61
2022/06/01 05:20:42;;;;;;;4.03;3.67;;;19.10;99.90;;;;;;4926004;29;20432;-61
2022/06/01 05:23:13;;;;;;;3.90;3.60;;;19.00;99.90;;;;;;4925822;29;20472;-60
2022/06/01 05:25:45;;;;;;;3.57;3.27;;;19.00;99.90;;;;;;4924638;29;20531;-60
2022/06/01 05:28:20;;;;;;;3.90;3.50;;;18.90;99.90;;;;;;4925867;29;20437;-60
2022/06/01 05:30:56;;;;;;;3.27;2.90;;;18.90;99.90;;;;;;4925352;29;20439;-61
2022/06/01 05:33:28;;;;;;;3.67;3.47;;;18.80;99.90;;;;;;4925904;29;20440;-60
2022/06/01 05:36:02;;;;;;;3.30;3.07;;;18.80;99.90;;;;;;4925907;29;20462;-60
2022/06/01 05:38:33;;;;;;;3.30;3.00;;;18.80;99.90;;;;;;4925781;29;20536;-60
2022/06/01 05:41:07;;;;;;;3.37;3.10;;;18.70;99.90;;;;;;4924503;29;20478;-60
2022/06/01 05:43:38;;;;;;;2.90;2.70;;;18.70;99.90;;;;;;4925404;29;20483;-61
2022/06/01 05:46:09;;;;;;;2.93;2.73;;;18.70;99.90;;;;;;4925483;29;20452;-61
2022/06/01 05:48:42;;;;;;;2.93;2.73;;;18.70;99.90;;;;;;4925554;29;20480;-61
2022/06/01 05:51:13;;;;;;;4.73;2.80;;;18.60;99.90;;;;;;4928359;29;20544;-61
2022/06/01 05:53:44;;;;;;;3.50;3.00;;;18.60;99.90;;;;;;4929269;29;20460;-61
2022/06/01 05:56:15;;;;;;;2.97;2.67;;;18.60;99.90;;;;;;4928884;29;20454;-61
2022/06/01 05:58:48;;;;;;;3.33;3.13;;;18.70;99.90;;;;;;4929063;29;20521;-61
2022/06/01 06:01:21;;;;;;;3.27;3.07;;;18.70;99.90;;;;;;4928914;29;20439;-61
2022/06/01 06:03:54;;;;;;;3.10;2.90;;;18.70;99.90;;;;;;4929266;29;20465;-61
2022/06/01 06:06:25;;;;;;;2.90;2.60;;;18.80;99.90;;;;;;4929414;29;20439;-61
2022/06/01 06:09:00;;;;;;;2.90;2.70;;;18.80;99.90;;;;;;4928518;29;20439;-61
2022/06/01 06:11:34;;;;;;;3.13;2.93;;;18.80;99.90;;;;;;4928915;29;20465;-61
2022/06/01 06:14:10;;;;;;;2.93;2.73;;;18.80;99.90;;;;;;4928448;29;20646;-60
2022/06/01 06:16:43;;;;;;;2.97;2.77;;;18.80;99.90;;;;;;4928976;29;20443;-61
2022/06/01 06:19:16;;;;;;;2.90;2.70;;;18.60;99.90;;;;;;4928339;29;20421;-61
2022/06/01 06:21:47;;;;;;;2.77;2.57;;;18.60;99.90;;;;;;4928924;29;20929;-61
2022/06/01 06:24:22;;;;;;;2.70;2.50;;;18.50;99.90;;;;;;4928000;29;20501;-61
2022/06/01 06:26:53;;;;;;;2.60;2.40;;;18.40;99.90;;;;;;4928933;29;20474;-60
2022/06/01 06:29:24;;;;;;;2.93;2.73;;;18.30;99.90;;;;;;4928617;29;20527;-62
2022/06/01 06:31:55;;;;;;;3.07;2.87;;;18.30;99.90;;;;;;4928407;29;20491;-61
2022/06/01 06:34:32;;;;;;;2.97;2.77;;;18.20;99.90;;;;;;4928375;29;20459;-61
2022/06/01 06:37:03;;;;;;;3.33;3.03;;;18.10;99.90;;;;;;4928509;29;20421;-61
2022/06/01 06:39:34;;;;;;;2.80;2.70;;;18.10;99.90;;;;;;4927637;29;20458;-61
2022/06/01 06:42:05;;;;;;;3.63;3.33;;;18.00;99.90;;;;;;4928180;29;20425;-61
2022/06/01 06:44:46;;;;;;;3.07;2.87;;;18.00;99.90;;;;;;4928219;29;20498;-61
2022/06/01 06:47:17;;;;;;;3.33;2.63;;;17.90;99.90;;;;;;4928411;29;20476;-61
2022/06/01 06:49:55;;;;;;;3.13;2.83;;;17.80;99.90;;;;;;4928048;29;20439;-61
2022/06/01 06:52:29;;;;;;;3.03;2.83;;;17.80;99.90;;;;;;4928118;29;20436;-61
2022/06/01 06:55:00;;;;;;;3.47;3.17;;;17.80;99.90;;;;;;4927408;29;20420;-61
2022/06/01 06:57:31;;;;;;;4.73;3.03;;;17.70;99.90;;;;;;4928580;29;20469;-60
2022/06/01 07:00:08;;;;;;;3.03;2.83;;;17.70;99.90;;;;;;4927828;29;20433;-61
2022/06/01 07:02:39;;;;;;;3.33;3.10;;;17.70;99.90;;;;;;4926667;29;20454;-61
2022/06/01 07:06:08;;;;;;;3.60;3.30;;;17.70;99.90;;;;;;4927848;29;20498;-61
2022/06/01 07:08:09;;;;;;;3.13;2.93;;;17.60;99.90;;;;;;4928034;29;20466;-61
2022/06/01 07:10:40;;;;;;;4.47;2.80;;;17.60;99.90;;;;;;4927057;29;20453;-60
2022/06/01 07:13:11;;;;;;;4.43;2.83;;;17.60;99.90;;;;;;4927857;29;20435;-60
2022/06/01 07:15:41;;;;;;;3.33;3.00;;;17.60;99.90;;;;;;4910024;29;20550;-60
2022/06/01 07:18:22;;;;;;;3.20;3.00;;;17.50;99.90;;;;;;4909057;29;20451;-61
2022/06/01 07:20:54;;;;;;;3.43;3.23;;;17.50;99.90;;;;;;4908670;29;20483;-60
2022/06/01 07:23:38;;;;;;;3.80;3.40;;;17.60;99.90;;;;;;4908544;29;20502;-60
2022/06/01 07:26:12;;;;;;;2.73;2.53;;;17.50;99.90;;;;;;4908020;29;20455;-60
2022/06/01 07:28:43;;;;;;;3.40;3.10;;;17.50;99.90;;;;;;4908837;29;20520;-61
2022/06/01 07:31:17;;;;;;;4.27;3.90;;;17.50;99.90;;;;;;4908938;29;20448;-60
2022/06/01 07:33:48;;;;;;;4.50;4.07;;;17.50;99.90;;;;;;4908267;29;20496;-60
2022/06/01 07:36:20;;;;;;;4.60;3.37;;;17.40;99.90;;;;;;4908636;29;20851;-60
2022/06/01 07:44:43;;;;;;;3.67;3.37;;;17.30;99.90;;;;;;4924347;29;20464;-60
2022/06/01 07:47:15;;;;;;;3.80;3.40;;;17.30;99.90;;;;;;4924800;29;20470;-60
2022/06/01 07:50:06;;;;;;;3.87;3.20;;;17.30;99.90;;;;;;4924396;29;21018;-60
2022/06/01 07:53:03;;;;;;;3.47;3.23;;;17.10;99.90;;;;;;4924623;29;20482;-60
2022/06/01 07:55:35;;;;;;;4.00;3.70;;;17.10;99.90;;;;;;4923911;29;20473;-60
2022/06/01 07:58:06;;;;;;;3.67;3.47;;;17.00;99.90;;;;;;4924960;29;20479;-61
2022/06/01 08:00:38;;;;;;;3.87;3.50;;;16.90;99.90;;;;;;4924582;29;20459;-60
2022/06/01 08:03:14;;;;;;;3.60;3.40;;;16.90;99.90;;;;;;4924756;29;20461;-60
2022/06/01 08:05:47;;;;;;;4.63;4.17;;;16.90;99.90;;;;;;4924606;29;20480;-61
2022/06/01 08:08:19;;;;;;;3.63;3.43;;;16.90;99.90;;;;;;4924672;29;20551;-62
2022/06/01 08:10:50;;;;;;;4.03;3.73;;;16.80;99.90;;;;;;4923818;29;20538;-61
2022/06/01 08:13:20;;;;;;;4.00;3.70;;;16.70;99.90;;;;;;4924164;29;20537;-61
2022/06/01 08:15:55;;;;;;;4.80;4.40;;;16.80;99.90;;;;;;4924484;29;20546;-61
2022/06/01 08:18:27;;;;;;;3.90;3.70;;;16.70;99.90;;;;;;4924559;29;20458;-61
2022/06/01 08:23:51;;;;;;;3.97;3.67;;;16.60;99.90;;;;;;4925867;29;20462;-61
2022/06/01 08:26:28;;;;;;;3.97;3.67;;;16.50;99.90;;;;;;4926685;29;20443;-62
2022/06/01 08:28:59;;;;;;;4.90;3.77;;;16.50;99.90;;;;;;4926786;29;20450;-61
2022/06/01 08:31:33;;;;;;;4.43;4.13;;;16.50;99.90;;;;;;4926754;29;20497;-61
2022/06/01 08:34:08;;;;;;;4.20;3.90;;;16.40;99.90;;;;;;4926208;29;20546;-60
2022/06/01 08:36:39;;;;;;;5.57;3.80;;;16.40;99.90;;;;;;4926807;29;20484;-61
2022/06/01 08:39:12;;;;;;;4.40;4.00;;;16.40;99.90;;;;;;4925855;29;20489;-61
2022/06/01 08:41:43;;;;;;;4.33;3.93;;;16.30;99.90;;;;;;4926174;29;20450;-61
2022/06/01 08:44:25;;;;;;;4.10;3.80;;;16.30;99.90;;;;;;4926108;29;20746;-61
2022/06/01 08:47:09;;;;;;;4.50;4.10;;;16.30;99.90;;;;;;4926298;29;20475;-61
2022/06/01 08:49:41;;;;;;;4.87;4.47;;;16.30;99.90;;;;;;4926040;29;20455;-61
2022/06/01 08:52:12;;;;;;;4.13;3.80;;;16.30;99.90;;;;;;4926320;29;20787;-61
2022/06/01 08:54:44;;;;;;;4.47;4.07;;;16.30;99.90;;;;;;4925381;29;20470;-61
2022/06/01 08:57:22;;;;;;;4.63;4.27;;;16.30;99.90;;;;;;4926666;29;20458;-61
2022/06/01 08:59:59;;;;;;;4.47;4.07;;;16.30;99.90;;;;;;4926290;29;20520;-61
2022/06/01 09:02:54;;;;;;;4.33;4.03;;;16.30;99.90;;;;;;4926575;29;20454;-61
2022/06/01 09:05:33;;;;;;;4.23;3.83;;;16.20;99.90;;;;;;4922022;29;20891;-62
2022/06/01 09:08:10;;;;;;;3.90;3.50;;;16.20;99.90;;;;;;4926206;29;20458;-60
2022/06/01 09:10:57;;;;;;;5.40;4.20;;;16.20;99.90;;;;;;4925037;29;20450;-60
2022/06/01 09:13:38;;;;;;;4.83;4.40;;;16.20;99.90;;;;;;4925784;29;20558;-61
2022/06/01 09:16:14;;;;;;;4.60;4.20;;;16.20;99.90;;;;;;4907050;29;20802;-60
2022/06/01 09:18:53;;;;;;;4.93;4.53;;;16.20;99.90;;;;;;4906885;29;20572;-60
2022/06/01 09:24:16;;;;;;;5.70;4.23;;;16.10;99.90;;;;;;4905036;29;20447;-60
2022/06/01 09:27:02;;;;;;;3.97;3.70;;;16.10;99.90;;;;;;4907519;29;20833;-60
2022/06/01 09:29:36;;;;;;;4.77;4.37;;;16.00;99.90;;;;;;4907388;29;20470;-60
2022/06/01 09:32:25;;;;;;;4.07;3.80;;;16.00;99.90;;;;;;4906877;29;20463;-60
2022/06/01 09:34:59;;;;;;;4.33;3.97;;;15.90;99.90;;;;;;4906489;29;20463;-61
2022/06/01 09:37:32;;;;;;;3.93;3.63;;;15.90;99.90;;;;;;4907303;29;20456;-61
2022/06/01 09:40:06;;;;;;;4.27;3.93;;;15.90;99.90;;;;;;4906238;29;20452;-61
2022/06/01 09:42:41;;;;;;;5.20;3.83;;;15.80;99.90;;;;;;4915203;29;20458;-61
2022/06/01 09:45:25;;;;;;;4.37;4.07;;;15.70;99.90;;;;;;4925176;29;20508;-64
2022/06/01 09:48:14;;;;;;;4.23;3.83;;;15.60;99.90;;;;;;4926375;29;20459;-61
2022/06/01 09:50:48;;;;;;;4.70;4.30;;;15.70;99.90;;;;;;4925933;29;20450;-60
2022/06/01 09:53:22;;;;;;;4.30;3.80;;;15.70;99.90;;;;;;4925701;29;20455;-61
2022/06/01 09:55:55;;;;;;;4.90;4.43;;;15.60;99.90;;;;;;4924746;29;20463;-61
2022/06/01 10:07:02;;;;;;;4.50;4.10;;;15.40;99.90;;;;;;4925799;29;20494;-60
2022/06/01 10:09:34;;;;;;;4.50;4.10;;;15.40;99.90;;;;;;4925172;29;20606;-60
2022/06/01 10:12:26;;;;;;;4.37;3.77;;;15.50;99.90;;;;;;4925986;29;20500;-60
2022/06/01 10:15:08;;;;;;;5.00;4.50;;;15.50;99.90;;;;;;4925352;29;20453;-59
2022/06/01 10:17:44;;;;;;;4.67;4.27;;;15.50;99.90;;;;;;4925896;29;20451;-60
2022/06/01 10:20:25;;;;;;;4.57;4.27;;;15.40;99.90;;;;;;4925680;29;20466;-60
2022/06/01 10:23:03;;;;;;;5.60;5.10;;;15.40;99.90;;;;;;4925896;29;20534;-60
2022/06/01 10:25:40;;;;;;;4.60;3.90;;;15.40;99.90;;;;;;4924402;29;20518;-61
2022/06/01 10:28:16;;;;;;;6.20;5.30;;;15.30;99.90;;;;;;4925600;29;20453;-61
2022/06/01 10:31:26;;;;;;;5.07;4.37;;;15.40;99.90;;;;;;4923911;29;20450;-60
2022/06/01 10:34:09;;;;;;;5.60;4.80;;;15.40;99.90;;;;;;4906830;29;20467;-60
2022/06/01 10:36:46;;;;;;;4.93;4.50;;;15.30;99.90;;;;;;4908410;29;20932;-60
2022/06/01 10:39:22;;;;;;;5.33;4.83;;;15.30;99.90;;;;;;4909090;29;20455;-60
2022/06/01 10:42:08;;;;;;;5.40;5.00;;;15.30;99.90;;;;;;4912502;29;20451;-59
2022/06/01 10:44:46;;;;;;;5.60;5.10;;;15.20;99.90;;;;;;4928662;29;20454;-60
2022/06/01 10:47:27;;;;;;;4.90;4.50;;;15.20;99.90;;;;;;4928366;29;20516;-59
2022/06/01 10:50:05;;;;;;;5.77;5.23;;;15.10;99.90;;;;;;4928328;29;20454;-60
2022/06/01 10:52:45;;;;;;;5.63;5.23;;;15.10;99.90;;;;;;4928330;29;20474;-60
2022/06/01 10:55:22;;;;;;;6.03;5.47;;;15.10;99.90;;;;;;4927720;29;20985;-60
2022/06/01 10:57:58;;;;;;;4.93;4.53;;;15.10;99.90;;;;;;4928389;29;20446;-60
2022/06/01 11:00:44;;;;;;;5.77;5.20;;;15.10;99.90;;;;;;4928438;29;20425;-60
2022/06/01 11:03:48;;;;;;;7.03;5.20;;;15.10;99.90;;;;;;4928390;29;20462;-60
2022/06/01 11:06:29;;;;;;;4.90;4.40;;;15.10;99.90;;;;;;4923074;29;20494;-60
2022/06/01 11:09:08;;;;;;;5.40;4.40;;;15.10;99.90;;;;;;4927178;29;20474;-60
2022/06/01 11:11:48;;;;;;;6.23;5.53;;;15.10;99.90;;;;;;4928423;29;20458;-61
2022/06/01 11:14:39;;;;;;;5.33;4.93;;;15.10;99.90;;;;;;4927576;29;20465;-60
2022/06/01 11:17:19;;;;;;;5.33;4.93;;;15.10;99.90;;;;;;4927582;29;20437;-61
2022/06/01 11:20:18;;;;;;;4.20;3.90;;;15.00;99.90;;;;;;4927830;29;20454;-60
2022/06/01 11:23:00;;;;;;;5.20;4.70;;;15.00;99.90;;;;;;4920987;29;20467;-60
2022/06/01 11:25:35;;;;;;;6.60;5.10;;;15.00;99.90;;;;;;4926608;29;20451;-60
2022/06/01 11:28:22;;;;;;;5.73;5.23;;;15.00;99.90;;;;;;4927775;29;21144;-60
2022/06/01 11:31:04;;;;;;;5.17;4.67;;;14.90;99.90;;;;;;4927654;29;20822;-61
2022/06/01 11:33:44;;;;;;;5.60;5.10;;;14.90;99.90;;;;;;4927783;29;20478;-60
2022/06/01 11:36:26;;;;;;;8.00;5.07;;;14.90;99.90;;;;;;4927413;29;20454;-60
2022/06/01 11:39:10;;;;;;;5.50;4.57;;;14.80;99.90;;;;;;4926767;29;20911;-60
2022/06/01 11:41:47;;;;;;;4.53;4.13;;;14.80;99.90;;;;;;4927742;29;20458;-60
2022/06/01 11:44:29;;;;;;;5.50;4.73;;;14.80;99.90;;;;;;4926997;29;20449;-60
2022/06/01 11:47:04;;;;;;;6.40;5.80;;;14.70;99.90;;;;;;4927160;29;20502;-60
2022/06/01 11:49:40;;;;;;;5.43;5.00;;;14.60;99.90;;;;;;4926960;29;20435;-60
2022/06/01 11:52:39;;;;;;;5.70;4.70;;;14.60;99.90;;;;;;4927287;29;20458;-60
2022/06/01 11:55:46;;;;;;;6.03;5.53;;;14.60;99.90;;;;;;4926223;29;20456;-60
2022/06/01 11:58:28;;;;;;;5.30;4.80;;;14.50;99.90;;;;;;4927222;29;20824;-60
2022/06/01 12:01:13;;;;;;;6.50;5.23;;;14.50;99.90;;;;;;4926770;29;20474;-60
2022/06/01 12:03:57;;;;;;;5.10;4.70;;;14.50;99.90;;;;;;4926901;29;20461;-60
2022/06/01 12:06:50;;;;;;;5.53;4.93;;;14.50;99.90;;;;;;4926723;29;20835;-60
2022/06/01 12:09:36;;;;;;;5.90;5.40;;;14.40;99.90;;;;;;4926028;29;20486;-60
2022/06/01 12:12:08;;;;;;;5.67;5.13;;;14.40;99.90;;;;;;4927095;29;20473;-60
2022/06/01 12:14:58;;;;;;;6.33;5.10;;;14.30;99.90;;;;;;4912572;29;20566;-60
2022/06/01 12:17:35;;;;;;;6.00;5.50;;;14.30;99.90;;;;;;4908000;29;20497;-61
2022/06/01 12:20:53;;;;;;;6.20;5.57;;;14.30;99.90;;;;;;4908080;29;20440;-60
2022/06/01 12:30:18;;;;;;;5.80;5.13;;;14.30;99.90;;;;;;4886430;29;20540;-60
2022/06/01 12:33:17;;;;;;;7.27;5.83;;;14.20;99.90;;;;;;4886939;29;20433;-60
2022/06/01 12:36:02;;;;;;;5.60;5.10;;;14.20;99.90;;;;;;4886629;29;20492;-60
2022/06/01 12:38:39;;;;;;;6.00;5.50;;;14.20;99.90;;;;;;4886549;29;20484;-60
2022/06/01 12:41:23;;;;;;;5.93;5.33;;;14.20;99.90;;;;;;4886647;29;20437;-60
2022/06/01 12:44:03;;;;;;;6.73;5.33;;;14.10;99.90;;;;;;4886335;29;20516;-60
2022/06/01 12:46:40;;;;;;;6.93;5.60;;;14.10;99.90;;;;;;4886751;29;20500;-60
2022/06/01 12:49:35;;;;;;;5.80;5.30;;;14.00;99.90;;;;;;4886375;29;20868;-60
2022/06/01 12:52:28;;;;;;;6.27;5.70;;;14.00;99.90;;;;;;4886668;29;20460;-60
2022/06/01 12:55:07;;;;;;;6.13;5.63;;;14.00;99.90;;;;;;4866858;29;20457;-60
2022/06/01 12:57:50;;;;;;;5.70;5.30;;;14.00;99.90;;;;;;4893919;29;20554;-60
2022/06/01 13:00:25;;;;;;;6.60;5.30;;;14.00;99.90;;;;;;4906586;29;20456;-60
2022/06/01 13:02:56;;;;;;;5.97;5.47;;;14.10;99.90;;;;;;4907928;29;20466;-60
2022/06/01 13:05:35;;;;;;;5.30;4.90;;;14.10;99.90;;;;;;4907522;29;20542;-60
2022/06/01 13:08:11;;;;;;;6.27;5.67;;;14.20;99.90;;;;;;4907363;29;20513;-60
2022/06/01 13:10:58;;;;;;;5.87;5.27;;;14.30;99.90;;;;;;4906754;29;20542;-60
2022/06/01 13:13:31;;;;;;;5.90;5.40;;;14.20;99.90;;;;;;4907234;29;20813;-60
2022/06/01 13:16:07;;;;;;;7.07;6.07;;;14.30;99.90;;;;;;4906919;29;20459;-60
2022/06/01 13:18:42;;;;;;;7.37;6.10;;;14.40;99.90;;;;;;4907012;29;20455;-60
2022/06/01 13:21:18;;;;;;;7.37;5.30;;;14.40;99.90;;;;;;4912199;29;20498;-60
2022/06/01 13:23:55;;;;;;;7.40;5.10;;;14.40;99.90;;;;;;4925732;29;20439;-60
2022/06/01 13:26:35;;;;;;;6.17;5.57;;;14.50;99.90;;;;;;4926108;29;20458;-60
2022/06/01 13:29:13;;;;;;;6.13;5.57;;;14.60;99.90;;;;;;4925708;29;20462;-60
2022/06/01 13:31:48;;;;;;;5.50;5.00;;;14.70;99.90;;;;;;4926095;29;20485;-60
2022/06/01 13:34:25;;;;;;;6.77;5.93;;;14.70;99.90;;;;;;4925622;29;20827;-60
2022/06/01 13:37:05;;;;;;;6.90;6.17;;;14.80;99.90;;;;;;4926218;29;20465;-60
2022/06/01 13:39:41;;;;;;;6.33;5.70;;;14.90;99.90;;;;;;4924161;29;20455;-60
2022/06/01 13:42:25;;;;;;;5.70;5.20;;;15.00;99.90;;;;;;4926078;29;20454;-60
2022/06/01 13:45:18;;;;;;;8.37;5.57;;;15.10;99.90;;;;;;4925502;29;20466;-60
2022/06/01 13:48:06;;;;;;;6.23;5.40;;;15.10;99.90;;;;;;4924867;29;20562;-60
2022/06/01 13:50:45;;;;;;;5.50;5.10;;;15.10;99.90;;;;;;4925476;29;20803;-60
2022/06/01 13:53:33;;;;;;;6.13;5.60;;;15.30;99.90;;;;;;4916601;29;20456;-60
2022/06/01 13:56:08;;;;;;;6.67;4.97;;;15.40;99.90;;;;;;4905598;29;20555;-60
2022/06/01 13:59:02;;;;;;;5.53;4.90;;;15.40;99.90;;;;;;4906343;29;20452;-60
2022/06/01 14:01:41;;;;;;;9.13;4.93;;;15.40;99.90;;;;;;4906613;29;20456;-60
2022/06/01 14:04:26;;;;;;;5.13;4.63;;;15.60;99.90;;;;;;4906348;29;20924;-60
2022/06/01 14:07:13;;;;;;;4.67;4.20;;;15.70;99.90;;;;;;4906309;29;20476;-60
2022/06/01 14:09:48;;;;;;;5.40;4.90;;;15.80;99.90;;;;;;4905782;29;20422;-60
2022/06/01 14:12:19;;;;;;;5.07;4.67;;;15.90;99.90;;;;;;4909502;29;20457;-60